createdAt,value
2023-08-17T00:02:47.991Z,21.00
2023-08-17T00:07:51.521Z,20.90
2023-08-17T00:12:53.621Z,20.80
2023-08-17T00:17:55.515Z,20.90
2023-08-17T00:22:59.365Z,20.70
2023-08-17T00:28:01.426Z,20.80
2023-08-17T00:33:03.373Z,21.00
2023-08-17T00:38:07.231Z,21.30
2023-08-17T00:43:10.148Z,21.40
2023-08-17T00:48:13.109Z,21.30
2023-08-17T00:53:17.538Z,21.20
2023-08-17T00:58:19.584Z,21.10
2023-08-17T01:03:22.965Z,20.80
2023-08-17T01:08:27.148Z,20.90
2023-08-17T01:13:37.461Z,20.90
2023-08-17T01:18:42.130Z,20.80
2023-08-17T01:23:47.231Z,20.90
2023-08-17T01:28:50.070Z,20.90
2023-08-17T01:33:56.777Z,21.00
2023-08-17T01:39:04.216Z,21.30
2023-08-17T01:44:07.018Z,21.30
2023-08-17T01:49:08.978Z,21.10
2023-08-17T01:54:12.622Z,21.00
2023-08-17T01:59:15.253Z,21.10
2023-08-17T02:04:17.761Z,21.00
2023-08-17T02:09:20.861Z,20.80
2023-08-17T02:14:22.612Z,20.70
2023-08-17T02:19:24.665Z,20.90
2023-08-17T02:24:28.441Z,20.90
2023-08-17T02:29:30.636Z,20.60
2023-08-17T02:34:32.626Z,20.40
2023-08-17T02:39:35.911Z,20.00
2023-08-17T02:44:37.914Z,19.90
2023-08-17T02:49:39.934Z,19.80
2023-08-17T02:54:43.499Z,19.60
2023-08-17T02:59:45.668Z,19.20
2023-08-17T03:04:47.929Z,18.80
2023-08-17T03:09:51.361Z,18.50
2023-08-17T03:14:53.358Z,18.40
2023-08-17T03:19:55.221Z,18.30
2023-08-17T03:24:59.240Z,18.30
2023-08-17T03:30:01.006Z,18.20
2023-08-17T03:35:03.552Z,18.10
2023-08-17T03:40:08.623Z,18.10
2023-08-17T03:45:11.166Z,18.00
2023-08-17T03:50:13.211Z,17.90
2023-08-17T03:55:16.798Z,18.10
2023-08-17T04:00:18.974Z,17.80
2023-08-17T04:05:21.373Z,17.60
2023-08-17T04:10:25.003Z,17.50
2023-08-17T04:15:27.368Z,17.50
2023-08-17T04:20:29.429Z,17.60
2023-08-17T04:25:32.766Z,17.60
2023-08-17T04:30:34.731Z,17.60
2023-08-17T04:35:36.540Z,17.60
2023-08-17T04:40:39.779Z,17.60
2023-08-17T04:45:41.506Z,17.60
2023-08-17T04:50:43.495Z,17.50
2023-08-17T04:55:47.102Z,17.40
2023-08-17T05:00:49.466Z,17.50
2023-08-17T05:05:51.875Z,17.50
2023-08-17T05:10:55.613Z,17.60
2023-08-17T05:15:58.044Z,17.30
2023-08-17T05:21:00.165Z,17.50
2023-08-17T05:26:03.438Z,17.70
2023-08-17T05:31:09.030Z,18.10
2023-08-17T05:36:11.238Z,18.60
2023-08-17T05:41:14.612Z,19.20
2023-08-17T05:46:16.652Z,19.50
2023-08-17T05:51:19.292Z,20.10
2023-08-17T05:56:22.936Z,20.60
2023-08-17T06:01:25.476Z,21.10
2023-08-17T06:06:28.525Z,21.60
2023-08-17T06:11:32.108Z,22.00
2023-08-17T06:16:34.207Z,22.30
2023-08-17T06:21:36.468Z,22.60
2023-08-17T06:26:42.967Z,22.90
2023-08-17T06:31:45.111Z,23.10
2023-08-17T06:36:59.969Z,23.30
2023-08-17T06:42:03.521Z,23.60
2023-08-17T06:47:05.821Z,24.00
2023-08-17T06:52:08.015Z,24.20
2023-08-17T06:57:11.746Z,24.30
2023-08-17T07:02:13.786Z,24.20
2023-08-17T07:07:17.001Z,24.30
2023-08-17T07:12:21.273Z,24.50
2023-08-17T07:17:23.519Z,24.90
2023-08-17T07:22:26.182Z,25.10
2023-08-17T07:27:29.876Z,25.20
2023-08-17T07:32:32.559Z,25.80
2023-08-17T07:37:35.400Z,26.20
2023-08-17T07:42:39.645Z,26.60
2023-08-17T07:47:42.382Z,26.70
2023-08-17T07:52:44.295Z,26.50
2023-08-17T07:57:47.910Z,26.70
2023-08-17T08:02:50.066Z,26.70
2023-08-17T08:07:52.748Z,27.00
2023-08-17T08:12:56.675Z,27.30
2023-08-17T08:17:58.945Z,27.40
2023-08-17T08:23:01.531Z,27.70
2023-08-17T08:28:06.040Z,27.70
2023-08-17T08:33:08.307Z,28.10
2023-08-17T08:38:11.477Z,28.10
2023-08-17T08:43:14.887Z,28.40
2023-08-17T08:48:20.555Z,28.80
2023-08-17T08:58:40.784Z,29.00
2023-08-17T09:03:44.432Z,29.20
2023-08-17T09:08:47.683Z,29.50
2023-08-17T09:13:53.852Z,30.20
2023-08-17T09:18:56.243Z,30.40
2023-08-17T09:24:00.482Z,30.70
2023-08-17T09:29:19.571Z,31.20
2023-08-17T09:34:22.131Z,31.20
2023-08-17T09:39:24.853Z,31.50
2023-08-17T09:44:28.735Z,31.90
2023-08-17T09:49:36.557Z,32.30
2023-08-17T09:54:39.249Z,32.30
2023-08-17T09:59:43.365Z,31.80
2023-08-17T10:04:46.889Z,31.90
2023-08-17T10:09:55.483Z,32.40
2023-08-17T10:15:04.799Z,32.10
2023-08-17T10:20:07.928Z,32.80
2023-08-17T10:25:13.061Z,33.70
2023-08-17T10:30:16.714Z,33.80
2023-08-17T10:35:19.382Z,33.90
2023-08-17T10:40:29.447Z,34.20
2023-08-17T10:45:38.873Z,33.70
2023-08-17T10:50:43.801Z,32.70
2023-08-17T10:55:52.811Z,32.10
2023-08-17T11:00:58.757Z,33.30
2023-08-17T11:06:15.974Z,34.00
2023-08-17T11:11:18.913Z,34.30
2023-08-17T11:16:23.718Z,34.70
2023-08-17T11:21:26.329Z,34.60
2023-08-17T11:26:35.442Z,34.70
2023-08-17T11:31:42.943Z,34.10
2023-08-17T11:36:45.110Z,34.30
2023-08-17T11:41:47.744Z,35.50
2023-08-17T11:46:51.374Z,35.00
2023-08-17T11:51:54.463Z,32.50
2023-08-17T11:56:56.356Z,30.50
2023-08-17T12:01:59.856Z,29.50
2023-08-17T12:07:02.340Z,28.60
2023-08-17T12:12:04.460Z,28.60
2023-08-17T12:17:08.262Z,28.60
2023-08-17T12:22:10.171Z,28.30
2023-08-17T12:27:13.274Z,28.20
2023-08-17T12:32:19.682Z,28.20
2023-08-17T12:37:22.956Z,28.10
2023-08-17T12:42:25.372Z,28.10
2023-08-17T12:47:34.640Z,28.00
2023-08-17T12:52:37.173Z,28.00
2023-08-17T12:57:39.567Z,27.90
2023-08-17T13:02:43.501Z,27.70
2023-08-17T13:07:46.034Z,27.60
2023-08-17T13:12:49.066Z,27.00
2023-08-17T13:17:52.753Z,27.20
2023-08-17T13:22:54.956Z,27.40
2023-08-17T13:27:57.448Z,27.80
2023-08-17T13:33:00.971Z,27.50
2023-08-17T13:38:05.366Z,27.80
2023-08-17T13:43:13.323Z,28.20
2023-08-17T13:48:17.400Z,28.50
2023-08-17T13:53:19.609Z,28.00
2023-08-17T13:58:21.858Z,27.50
2023-08-17T14:03:25.838Z,27.40
2023-08-17T14:08:28.317Z,28.30
2023-08-17T14:13:30.566Z,29.40
2023-08-17T14:18:33.799Z,29.80
2023-08-17T14:23:35.737Z,29.80
2023-08-17T14:28:37.792Z,30.40
2023-08-17T14:33:41.558Z,31.10
2023-08-17T14:38:43.394Z,29.10
2023-08-17T14:43:45.417Z,28.10
2023-08-17T14:48:48.994Z,29.00
2023-08-17T14:53:50.876Z,29.30
2023-08-17T14:58:53.368Z,28.50
2023-08-17T15:03:57.363Z,27.10
2023-08-17T15:08:59.895Z,26.80
2023-08-17T15:14:01.994Z,26.50
2023-08-17T15:19:08.504Z,26.00
2023-08-17T15:24:10.731Z,26.00
2023-08-17T15:29:13.053Z,25.70
2023-08-17T15:34:16.595Z,25.60
2023-08-17T15:39:18.650Z,25.20
2023-08-17T15:44:21.511Z,24.70
2023-08-17T15:49:25.343Z,24.30
2023-08-17T15:54:35.904Z,24.00
2023-08-17T15:59:40.043Z,23.90
2023-08-17T16:04:44.012Z,23.60
2023-08-17T16:09:46.246Z,23.30
2023-08-17T16:14:50.045Z,23.30
2023-08-17T16:19:53.997Z,23.20
2023-08-17T16:24:56.320Z,23.00
2023-08-17T16:29:58.421Z,23.00
2023-08-17T16:35:02.856Z,22.90
2023-08-17T16:40:05.911Z,22.40
2023-08-17T16:45:10.643Z,21.90
2023-08-17T16:50:15.839Z,21.60
2023-08-17T16:55:19.827Z,21.40
2023-08-17T17:00:24.176Z,21.10
2023-08-17T17:05:30.435Z,21.00
2023-08-17T17:10:34.930Z,20.80
2023-08-17T17:15:39.531Z,20.70
2023-08-17T17:20:45.473Z,20.50
2023-08-17T17:25:49.998Z,20.40
2023-08-17T17:30:54.455Z,20.40
2023-08-17T17:36:00.526Z,20.20
2023-08-17T17:41:06.143Z,20.40
2023-08-17T17:46:10.769Z,20.40
2023-08-17T17:51:18.819Z,20.20
2023-08-17T17:56:39.317Z,20.40
2023-08-17T18:01:44.509Z,20.40
2023-08-17T18:06:50.730Z,20.40
2023-08-17T18:11:55.227Z,20.30
2023-08-17T18:17:01.747Z,20.30
2023-08-17T18:22:13.025Z,20.30
2023-08-17T18:27:18.049Z,20.20
2023-08-17T18:32:33.880Z,20.20
2023-08-17T18:37:41.558Z,20.10
2023-08-17T18:42:47.549Z,20.20
2023-08-17T18:47:55.607Z,20.20
2023-08-17T18:53:04.358Z,20.10
2023-08-17T18:58:09.321Z,20.10
2023-08-17T19:03:15.062Z,20.00
2023-08-17T19:08:22.680Z,20.10
2023-08-17T19:13:27.764Z,20.00
2023-08-17T19:18:34.117Z,20.10
2023-08-17T19:23:41.402Z,20.10
2023-08-17T19:28:47.442Z,20.20
2023-08-17T19:33:52.270Z,20.20
2023-08-17T19:38:59.136Z,20.30
2023-08-17T19:44:04.187Z,20.30
2023-08-17T19:49:12.800Z,20.30
2023-08-17T19:54:19.393Z,20.30
2023-08-17T19:59:24.157Z,20.40
2023-08-17T20:04:47.493Z,20.50
2023-08-17T20:09:57.559Z,20.40
2023-08-17T20:15:02.730Z,20.60
2023-08-17T20:20:12.193Z,20.60
2023-08-17T20:25:19.042Z,20.50
2023-08-17T20:30:25.038Z,20.60
2023-08-17T20:35:31.510Z,20.50
2023-08-17T20:40:38.864Z,20.50
2023-08-17T20:45:44.410Z,20.40
2023-08-17T20:50:49.455Z,20.30
2023-08-17T20:55:55.188Z,20.30
2023-08-17T21:00:59.796Z,20.20
2023-08-17T21:06:05.522Z,20.10
2023-08-17T21:11:09.176Z,20.20
2023-08-17T21:16:12.398Z,20.20
2023-08-17T21:21:14.975Z,20.00
2023-08-17T21:26:18.423Z,20.00
2023-08-17T21:31:20.689Z,20.10
2023-08-17T21:36:23.165Z,20.20
2023-08-17T21:41:26.566Z,20.30
2023-08-17T21:46:29.264Z,20.40
2023-08-17T21:51:31.320Z,20.40
2023-08-17T21:56:35.170Z,20.50
2023-08-17T22:01:37.266Z,20.40
2023-08-17T22:06:40.273Z,20.40
2023-08-17T22:11:44.133Z,20.30
2023-08-17T22:16:46.421Z,20.30
2023-08-17T22:21:49.122Z,20.30
2023-08-17T22:26:52.454Z,20.20
2023-08-17T22:31:54.457Z,20.10
2023-08-17T22:36:56.688Z,20.10
2023-08-17T22:42:00.378Z,20.00
2023-08-17T22:47:02.630Z,20.00
2023-08-17T22:52:05.786Z,19.90
2023-08-17T22:57:11.245Z,20.00
2023-08-17T23:02:13.336Z,19.90
2023-08-17T23:07:15.477Z,19.80
2023-08-17T23:12:19.080Z,19.70
2023-08-17T23:17:21.298Z,19.80
2023-08-17T23:22:23.109Z,19.80
2023-08-17T23:27:27.404Z,20.00
2023-08-17T23:32:30.174Z,20.00
2023-08-17T23:37:32.378Z,20.10
2023-08-17T23:42:36.037Z,20.00
2023-08-17T23:47:38.250Z,20.00
2023-08-17T23:52:40.124Z,20.10
2023-08-17T23:57:43.930Z,20.00
